Time;durP1;ratioP1;P1;durP2;ratioP2;P2;SDS_P1;SDS_P2;PMS_P1;PMS_P2;Temp;Humidity;BMP_temperature;BMP_pressure;BME280_temperature;BME280_humidity;BME280_pressure;Samples;Min_cycle;Max_cycle;Signal;HPM_P1;HPM_P2
2023/01/06 00:01:36;;;;;;;3.98;1.95;;;;;;;-0.36;99.00;99969.23;1805180;79;21050;-85
2023/01/06 00:08:10;;;;;;;6.58;2.17;;;;;;;-0.52;98.95;99972.19;1805143;79;21038;-86
2023/01/06 00:14:37;;;;;;;5.47;1.70;;;;;;;-0.48;98.96;99975.61;1805270;79;21107;-86
2023/01/06 00:21:11;;;;;;;3.02;1.85;;;;;;;-0.50;98.94;99979.90;1806232;79;21039;-86
2023/01/06 00:23:42;;;;;;;6.65;2.58;;;;;;;-0.46;98.88;99986.73;1805679;79;21146;-86
2023/01/06 00:30:16;;;;;;;6.22;2.67;;;;;;;-0.46;98.71;99999.56;1805907;79;21173;-85
2023/01/06 00:36:47;;;;;;;6.70;2.62;;;;;;;-0.48;98.65;100010.23;1806043;79;21600;-86
2023/01/06 00:39:20;;;;;;;7.08;2.10;;;;;;;-0.58;98.62;100022.63;1805745;79;21058;-85
2023/01/06 00:45:52;;;;;;;7.20;2.00;;;;;;;-0.65;98.41;100038.84;1803769;79;21127;-85
2023/01/06 00:56:11;;;;;;;5.58;2.35;;;;;;;-0.75;98.26;100054.20;1804681;79;21070;-86
2023/01/06 01:02:42;;;;;;;6.53;2.27;;;;;;;-0.71;97.87;100067.87;1805508;79;21102;-85
2023/01/06 01:05:13;;;;;;;3.90;1.90;;;;;;;-0.74;97.81;100068.72;1805888;79;21058;-85
2023/01/06 01:07:46;;;;;;;4.25;2.30;;;;;;;-0.74;97.79;100070.00;1805035;79;21118;-85
2023/01/06 01:14:19;;;;;;;4.33;1.90;;;;;;;-0.70;97.83;100081.12;1805201;79;21062;-92
2023/01/06 01:16:49;;;;;;;4.00;1.87;;;;;;;-0.66;97.67;100088.42;1782965;79;20999;-84
2023/01/06 01:19:22;;;;;;;4.30;1.82;;;;;;;-0.70;97.31;100087.13;1805156;79;21115;-84
2023/01/06 01:21:52;;;;;;;6.25;2.37;;;;;;;-0.71;97.30;100090.95;1805256;79;21598;-84
2023/01/06 01:24:25;;;;;;;7.30;2.45;;;;;;;-0.73;97.22;100092.25;1805379;79;21118;-94
2023/01/06 01:26:56;;;;;;;3.62;1.90;;;;;;;-0.72;97.19;100092.67;1805353;79;21142;-85
2023/01/06 01:33:27;;;;;;;5.58;1.65;;;;;;;-0.75;96.89;100100.34;1805237;79;21026;-85
2023/01/06 01:39:59;;;;;;;3.85;1.90;;;;;;;-0.94;96.46;100108.80;1805394;79;21365;-85
2023/01/06 01:46:44;;;;;;;3.98;1.50;;;;;;;-0.92;96.20;100115.65;1805233;79;21063;-85
2023/01/06 01:57:08;;;;;;;9.38;2.50;;;;;;;-0.81;95.78;100131.09;1805158;79;21554;-93
2023/01/06 01:59:41;;;;;;;2.90;1.70;;;;;;;-0.87;95.52;100133.59;1805414;79;21427;-86
2023/01/06 02:06:17;;;;;;;6.72;1.90;;;;;;;-0.86;95.49;100158.41;1805300;79;21134;-85
2023/01/06 02:12:50;;;;;;;2.80;1.65;;;;;;;-0.88;95.11;100149.84;1805393;79;21102;-91
2023/01/06 02:19:45;;;;;;;4.47;1.52;;;;;;;-0.93;94.72;100141.26;1805270;79;21101;-85
2023/01/06 02:26:55;;;;;;;3.35;1.72;;;;;;;-1.05;94.82;100150.16;1805383;79;21082;-85
2023/01/06 02:33:42;;;;;;;4.80;1.82;;;;;;;-1.04;94.56;100158.27;1805139;79;21082;-85
2023/01/06 02:39:49;;;;;;;2.95;1.70;;;;;;;-0.96;94.32;100143.80;1804340;79;20157;-85
2023/01/06 02:46:26;;;;;;;3.30;1.75;;;;;;;-1.06;94.10;100145.47;1805375;79;21023;-85
2023/01/06 02:52:59;;;;;;;2.90;1.75;;;;;;;-1.10;93.83;100142.86;1805884;79;21043;-85
2023/01/06 02:59:37;;;;;;;3.15;1.62;;;;;;;-0.99;93.73;100132.25;1806109;79;21039;-85
2023/01/06 03:06:13;;;;;;;4.17;1.92;;;;;;;-0.98;93.43;100137.80;1805849;79;21066;-85
2023/01/06 03:12:50;;;;;;;4.42;2.15;;;;;;;-1.09;93.23;100134.31;1805349;79;21369;-85
2023/01/06 03:19:22;;;;;;;4.10;1.98;;;;;;;-0.90;93.18;100127.17;1805286;79;21106;-86
2023/01/06 03:25:50;;;;;;;4.58;1.90;;;;;;;-0.72;92.63;100123.44;1805261;79;21022;-85
2023/01/06 03:28:23;;;;;;;3.17;1.50;;;;;;;-0.74;92.36;100134.53;1784000;79;21982;-85
2023/01/06 03:35:30;;;;;;;4.00;1.60;;;;;;;-0.71;92.56;100132.84;1805268;79;21784;-94
2023/01/06 03:48:50;;;;;;;2.75;1.62;;;;;;;-0.78;92.08;100146.49;1805187;79;21101;-85
2023/01/06 03:58:31;;;;;;;4.03;1.60;;;;;;;-0.91;91.69;100149.83;1805136;79;21058;-85
2023/01/06 04:05:14;;;;;;;2.60;1.40;;;;;;;-0.94;91.64;100151.94;1805277;79;21122;-84
2023/01/06 04:18:34;;;;;;;5.65;2.55;;;;;;;-1.02;91.38;100143.34;1805204;79;21031;-85
2023/01/06 04:25:08;;;;;;;3.55;1.72;;;;;;;-0.81;91.30;100137.50;1805413;79;21090;-85
2023/01/06 04:31:43;;;;;;;4.08;1.37;;;;;;;-0.81;91.21;100136.22;1805224;79;21061;-95
2023/01/06 04:37:26;;;;;;;4.58;1.80;;;;;;;-0.64;91.06;100149.53;1805025;79;21565;-85
2023/01/06 04:43:57;;;;;;;2.47;1.60;;;;;;;-0.60;91.10;100157.69;1805262;79;21123;-85
2023/01/06 04:46:29;;;;;;;3.27;1.70;;;;;;;-0.66;90.75;100161.52;1805200;79;21015;-85
2023/01/06 04:52:59;;;;;;;4.05;1.40;;;;;;;-0.63;90.63;100158.96;1805268;79;21102;-84
2023/01/06 04:55:33;;;;;;;2.95;1.75;;;;;;;-0.71;90.52;100157.20;1805025;79;21055;-85
2023/01/06 05:02:05;;;;;;;5.53;1.80;;;;;;;-0.68;90.54;100159.77;1805441;79;21474;-85
2023/01/06 05:04:37;;;;;;;3.52;1.72;;;;;;;-0.65;90.59;100164.50;1805154;79;21824;-85
2023/01/06 05:11:16;;;;;;;3.02;1.42;;;;;;;-0.62;90.60;100163.23;1805329;79;21550;-85
2023/01/06 05:13:48;;;;;;;2.35;1.42;;;;;;;-0.79;90.27;100169.11;1805604;79;21019;-85
2023/01/06 05:16:28;;;;;;;2.58;1.40;;;;;;;-0.83;90.46;100157.14;1805279;79;21142;-85
2023/01/06 05:23:01;;;;;;;2.92;1.72;;;;;;;-0.91;90.27;100159.65;1805193;79;21903;-85
2023/01/06 05:29:32;;;;;;;4.62;1.80;;;;;;;-0.89;90.20;100145.58;1805641;79;21065;-85
2023/01/06 05:36:06;;;;;;;3.50;1.70;;;;;;;-0.92;89.98;100143.00;1805077;79;21102;-85
2023/01/06 05:42:39;;;;;;;3.45;1.72;;;;;;;-0.88;89.98;100154.12;1803872;79;21039;-85
2023/01/06 05:49:10;;;;;;;3.40;1.80;;;;;;;-1.00;90.04;100157.47;1805194;79;21093;-94
2023/01/06 05:59:29;;;;;;;3.17;1.80;;;;;;;-0.93;89.88;100160.48;1805155;79;21092;-94
2023/01/06 06:05:49;;;;;;;3.22;1.77;;;;;;;-0.99;89.66;100151.48;1804886;79;21054;-84
2023/01/06 06:08:22;;;;;;;5.87;1.72;;;;;;;-1.03;89.61;100149.76;1809143;79;21051;-84
2023/01/06 06:10:55;;;;;;;2.92;1.60;;;;;;;-1.06;89.34;100153.59;1805597;79;21050;-84
2023/01/06 06:13:26;;;;;;;3.12;1.57;;;;;;;-1.02;89.33;100141.20;1805006;79;21141;-85
2023/01/06 06:16:07;;;;;;;3.42;1.57;;;;;;;-1.13;89.20;100144.55;1804470;79;21030;-85
2023/01/06 06:18:41;;;;;;;4.22;1.95;;;;;;;-1.16;89.05;100149.66;1805261;79;21098;-84
2023/01/06 06:25:13;;;;;;;2.17;1.50;;;;;;;-1.26;89.04;100147.89;1805271;79;21392;-85
2023/01/06 06:31:54;;;;;;;4.40;2.12;;;;;;;-1.23;89.03;100138.95;1804979;79;21178;-84
2023/01/06 06:38:32;;;;;;;3.62;1.85;;;;;;;-1.19;88.94;100149.63;1804885;79;21098;-84
2023/01/06 06:45:35;;;;;;;3.67;2.10;;;;;;;-1.14;88.85;100147.97;1803834;79;21062;-85
2023/01/06 07:03:49;;;;;;;6.58;3.80;;;;;;;-1.24;88.49;100128.24;1594381;89;21122;-86
2023/01/06 07:18:08;;;;;;;5.72;2.83;;;;;;;-1.22;88.26;100144.49;1531939;91;21717;-84
2023/01/06 07:20:54;;;;;;;;;;;;;;;;;;;;;
2023/01/06 07:30:19;;;;;;;;;;;;;;;;;;;;;
2023/01/06 07:32:34;;;;;;;3.47;2.20;;;;;;;-1.32;88.17;100152.95;1466818;94;21158;-85
2023/01/06 07:39:28;;;;;;;;;;;;;;;;;;;;;
2023/01/06 07:45:49;;;;;;;5.55;3.40;;;;;;;-1.30;87.94;100160.23;1531179;92;21292;-84
2023/01/06 07:58:41;;;;;;;3.50;2.85;;;;;;;-1.18;87.75;100159.03;1526053;92;21152;-84
2023/01/06 08:05:17;;;;;;;4.05;3.20;;;;;;;-1.13;87.86;100146.26;1670813;85;21105;-86
2023/01/06 08:11:59;;;;;;;5.28;3.00;;;;;;;-1.10;87.78;100126.20;1670408;86;21244;-83
2023/01/06 08:14:22;;;;;;;4.50;2.58;;;;;;;-1.15;87.85;100125.77;1659942;86;22010;-82
2023/01/06 08:19:56;;;;;;;5.47;3.77;;;;;;;-1.19;87.64;100111.20;1562779;91;21423;-81
2023/01/06 08:22:29;;;;;;;6.35;3.52;;;;;;;-1.19;87.68;100111.20;1586011;89;21146;-83
2023/01/06 08:25:01;;;;;;;19.27;4.92;;;;;;;-1.15;87.78;100111.67;1606028;89;21194;-82
2023/01/06 08:27:35;;;;;;;7.35;3.15;;;;;;;-1.10;87.70;100101.86;1606086;89;21871;-84
2023/01/06 08:30:12;;;;;;;6.15;4.17;;;;;;;-1.10;87.69;100083.92;1605522;89;21130;-82
2023/01/06 08:32:47;;;;;;;4.53;3.45;;;;;;;-1.15;87.58;100075.80;1605818;89;21141;-82
2023/01/06 08:35:20;;;;;;;5.22;3.40;;;;;;;-1.13;87.51;100077.92;1586244;89;21984;-84
2023/01/06 08:37:53;;;;;;;5.37;3.75;;;;;;;-1.15;87.16;100089.01;1605048;89;21130;-83
2023/01/06 08:40:32;;;;;;;7.12;3.80;;;;;;;-1.17;87.38;100097.98;1604676;89;21992;-83
2023/01/06 08:43:05;;;;;;;4.70;3.22;;;;;;;-1.10;87.59;100090.33;1605515;89;21146;-83
2023/01/06 08:46:02;;;;;;;5.65;4.10;;;;;;;-1.07;87.43;100086.07;1605594;88;21957;-82
2023/01/06 08:48:37;;;;;;;6.22;3.42;;;;;;;-1.07;87.43;100083.94;1600743;89;21071;-83
2023/01/06 08:58:24;;;;;;;6.15;4.15;;;;;;;-0.99;87.53;100092.53;1567192;89;21153;-88
2023/01/06 09:00:58;;;;;;;9.38;4.53;;;;;;;-0.74;87.84;100100.77;1589096;90;21624;-83
2023/01/06 09:03:38;;;;;;;12.45;4.75;;;;;;;-0.70;87.39;100103.80;1589000;89;22028;-82
2023/01/06 09:10:51;;;;;;;6.10;3.92;;;;;;;-0.60;87.27;100112.80;1564167;91;21178;-82
2023/01/06 09:13:22;;;;;;;6.25;3.85;;;;;;;-0.52;86.87;100107.28;1564111;91;21139;-84
2023/01/06 09:15:55;;;;;;;4.95;3.42;;;;;;;-0.47;87.39;100104.31;1564480;91;21414;-83
2023/01/06 09:18:27;;;;;;;6.97;4.47;;;;;;;-0.45;87.04;100111.56;1564550;89;21997;-83
2023/01/06 09:20:57;;;;;;;7.47;4.17;;;;;;;-0.38;87.45;100113.31;1564688;91;21137;-83
2023/01/06 09:23:32;;;;;;;8.20;3.98;;;;;;;-0.41;86.67;100103.05;1564574;91;21259;-84
2023/01/06 09:26:05;;;;;;;9.15;4.50;;;;;;;-0.39;87.29;100093.66;1601081;88;21137;-82
2023/01/06 09:28:54;;;;;;;8.70;3.98;;;;;;;-0.45;86.57;100076.94;1620079;88;21056;-84
2023/01/06 09:31:22;;;;;;;7.78;3.72;;;;;;;-0.53;86.45;100061.98;1665547;83;21067;-85
2023/01/06 09:33:53;;;;;;;7.92;3.80;;;;;;;-0.41;87.17;100062.00;1714932;83;20992;-85
2023/01/06 09:36:26;;;;;;;7.55;4.30;;;;;;;-0.48;86.47;100055.13;1714644;83;21904;-84
2023/01/06 09:38:59;;;;;;;6.67;3.90;;;;;;;-0.64;86.02;100055.92;1714054;83;21976;-83
2023/01/06 09:42:09;;;;;;;7.92;4.10;;;;;;;-0.60;86.63;100048.69;1713726;83;21056;-80
2023/01/06 09:45:05;;;;;;;11.53;6.50;;;;;;;-0.56;86.66;100038.85;1714342;83;21028;-82
2023/01/06 09:47:40;;;;;;;13.13;7.72;;;;;;;-0.48;86.97;100050.00;1785001;79;21185;-83
2023/01/06 09:50:27;;;;;;;28.90;14.73;;;;;;;-0.36;86.97;100047.91;1816205;79;21094;-84
2023/01/06 09:53:04;;;;;;;47.83;23.75;;;;;;;-0.23;87.00;100056.05;1816048;79;21600;-83
2023/01/06 09:55:50;;;;;;;30.35;15.70;;;;;;;-0.11;86.89;100042.37;1812344;79;21006;-83
2023/01/06 09:58:25;;;;;;;16.97;9.10;;;;;;;0.01;86.91;100035.12;1813787;78;21098;-83
2023/01/06 10:01:01;;;;;;;11.25;5.30;;;;;;;0.05;86.87;100040.25;1799477;79;21126;-83
2023/01/06 10:03:33;;;;;;;10.43;5.95;;;;;;;0.17;86.92;100038.98;1799591;79;21417;-83
2023/01/06 10:06:31;;;;;;;7.42;4.95;;;;;;;0.26;86.74;100034.70;1799454;80;21119;-84
2023/01/06 10:09:40;;;;;;;6.50;4.53;;;;;;;0.34;86.95;100026.14;1799395;80;21622;-83
2023/01/06 10:12:33;;;;;;;10.40;6.30;;;;;;;0.40;86.51;100013.72;1799376;80;21146;-83
2023/01/06 10:19:16;;;;;;;13.80;6.97;;;;;;;0.43;86.41;100012.42;1798861;80;21007;-82
2023/01/06 10:22:19;;;;;;;14.45;7.85;;;;;;;0.41;86.41;100014.13;1798479;79;21130;-82
2023/01/06 10:28:53;;;;;;;12.73;6.20;;;;;;;0.36;86.32;100008.14;1798629;80;20951;-83
2023/01/06 10:31:35;;;;;;;19.40;10.55;;;;;;;0.28;86.14;100008.57;1798896;80;21032;-82
2023/01/06 10:34:01;;;;;;;11.97;7.33;;;;;;;0.31;86.28;100007.28;1796684;79;20994;-83
2023/01/06 10:36:43;;;;;;;14.38;9.53;;;;;;;0.35;86.30;99999.58;1776757;80;21007;-82
2023/01/06 10:39:24;;;;;;;14.95;9.68;;;;;;;0.38;86.29;99991.02;1798509;80;20959;-82
2023/01/06 10:45:16;;;;;;;10.55;8.05;;;;;;;0.51;86.04;100000.42;1798608;80;21478;-82
2023/01/06 10:47:48;;;;;;;13.93;8.93;;;;;;;0.54;85.80;99994.42;1798645;79;20959;-82
2023/01/06 10:50:22;;;;;;;23.40;13.68;;;;;;;0.60;86.04;99997.82;1798487;80;21015;-82
2023/01/06 10:52:57;;;;;;;18.80;11.57;;;;;;;0.65;86.17;99993.97;1798872;79;21039;-83
2023/01/06 11:05:32;;;;;;;10.05;7.08;;;;;;;0.78;85.82;99975.49;1608185;89;21184;-82
2023/01/06 11:08:12;;;;;;;11.88;8.20;;;;;;;0.86;85.80;99975.89;1604796;89;21389;-82
2023/01/06 11:10:56;;;;;;;11.53;7.65;;;;;;;0.93;85.73;99962.59;1608312;89;21046;-82
2023/01/06 11:13:43;;;;;;;23.50;14.47;;;;;;;0.94;85.64;99963.01;1533941;88;21085;-81
2023/01/06 11:16:27;;;;;;;216.05;115.77;;;;;;;0.98;85.49;99946.72;1533286;93;21370;-81
2023/01/06 11:19:12;;;;;;;;;;;;;;;;;;;;;
2023/01/06 11:21:52;;;;;;;239.23;115.17;;;;;;;0.79;85.24;99929.67;1504053;93;21970;-82
2023/01/06 11:24:28;;;;;;;712.92;420.85;;;;;;;0.75;85.52;99927.52;1525638;93;21447;-83
2023/01/06 11:37:07;;;;;;;50.20;25.23;;;;;;;0.59;85.21;99890.77;1491713;95;21280;-81
2023/01/06 11:39:38;;;;;;;29.23;15.08;;;;;;;0.59;85.18;99884.78;1505333;95;21111;-81
2023/01/06 11:42:25;;;;;;;18.98;10.50;;;;;;;0.54;85.00;99874.52;1487262;95;21035;-81
2023/01/06 11:44:58;;;;;;;15.88;8.03;;;;;;;0.42;84.93;99875.42;1504327;95;21103;-82
2023/01/06 11:47:31;;;;;;;10.20;6.12;;;;;;;0.47;85.28;99870.24;1484223;95;21239;-81
2023/01/06 11:50:04;;;;;;;11.15;6.72;;;;;;;0.42;84.69;99866.83;1483262;96;21044;-82
2023/01/06 11:52:38;;;;;;;8.48;5.60;;;;;;;0.40;84.93;99862.16;1470752;96;21101;-82
2023/01/06 11:55:13;;;;;;;13.32;6.42;;;;;;;0.47;85.12;99849.69;1489087;96;21064;-82
2023/01/06 11:58:27;;;;;;;;;;;;;;;;;;;;;
2023/01/06 12:01:05;;;;;;;12.53;7.10;;;;;;;0.42;84.70;99848.85;1417568;100;22020;-85
2023/01/06 12:03:47;;;;;;;18.15;8.93;;;;;;;0.48;84.96;99842.83;1441002;99;21155;-81
2023/01/06 12:14:08;;;;;;;8.50;5.45;;;;;;;0.08;83.88;99830.99;1570167;91;21020;-82
2023/01/06 12:16:45;;;;;;;12.80;7.22;;;;;;;-0.04;84.36;99823.34;1558547;91;21117;-81
2023/01/06 12:20:23;;;;;;;15.75;7.03;;;;;;;-0.06;84.00;99817.34;1569283;90;21044;-81
2023/01/06 12:23:35;;;;;;;;;;;;;;;;;;;;;
2023/01/06 12:26:02;;;;;;;13.13;6.87;;;;;;;-0.10;83.96;99822.08;1571390;86;21941;-80
2023/01/06 12:28:54;;;;;;;11.15;6.03;;;;;;;-0.30;83.69;99817.84;1629382;88;21045;-82
2023/01/06 12:32:20;;;;;;;;;;;;;;;;;;;;;
2023/01/06 12:35:00;;;;;;;11.00;7.03;;;;;;;-0.51;83.55;99793.48;1578681;90;21189;-81
2023/01/06 12:37:52;;;;;;;16.02;8.28;;;;;;;-0.60;83.88;99794.35;1578722;91;21214;-81
2023/01/06 12:40:34;;;;;;;13.35;6.70;;;;;;;-0.63;83.73;99770.43;1575575;90;21938;-80
2023/01/06 12:43:20;;;;;;;14.33;7.60;;;;;;;-0.63;83.75;99770.43;1577612;90;21066;-81
2023/01/06 12:46:12;;;;;;;14.80;7.45;;;;;;;-0.64;83.84;99761.89;1600823;89;21085;-81
2023/01/06 12:48:57;;;;;;;14.45;8.10;;;;;;;-0.55;84.08;99768.71;1611702;88;21058;-81
2023/01/06 12:51:40;;;;;;;9.90;5.62;;;;;;;-0.54;83.99;99752.45;1612133;89;21086;-82
2023/01/06 12:54:17;;;;;;;17.45;8.43;;;;;;;-0.58;83.55;99752.05;1611398;89;21039;-81
2023/01/06 12:57:40;;;;;;;10.68;7.05;;;;;;;-0.63;83.90;99747.35;1611244;88;21066;-81
2023/01/06 13:00:43;;;;;;;13.13;7.30;;;;;;;-0.68;83.81;99743.06;1606691;89;21074;-86
2023/01/06 13:10:46;;;;;;;13.80;8.73;;;;;;;-0.75;84.13;99736.25;1722631;82;21005;-80
2023/01/06 13:13:49;;;;;;;15.43;7.42;;;;;;;-0.76;84.27;99730.69;1618758;88;21100;-80
2023/01/06 13:16:20;;;;;;;13.18;7.10;;;;;;;-0.75;84.25;99708.05;1616098;88;21060;-78
2023/01/06 13:19:26;;;;;;;11.48;7.42;;;;;;;-0.98;84.25;99710.65;1618892;88;21654;-80
2023/01/06 13:22:03;;;;;;;10.23;6.55;;;;;;;-1.06;84.61;99712.36;1640738;87;21073;-79
2023/01/06 13:25:02;;;;;;;13.37;7.93;;;;;;;-1.08;84.52;99706.38;1619185;88;21672;-80
2023/01/06 13:27:39;;;;;;;16.17;8.30;;;;;;;-1.09;84.49;99699.95;1618237;88;21958;-81
2023/01/06 13:30:21;;;;;;;18.17;8.88;;;;;;;-1.10;84.69;99697.83;1618513;88;21054;-82
2023/01/06 13:33:43;;;;;;;12.43;8.10;;;;;;;-1.10;84.56;99691.85;1618907;88;21074;-82
2023/01/06 13:36:50;;;;;;;14.78;8.03;;;;;;;-1.17;84.39;99684.17;1618302;88;21175;-81
2023/01/06 14:00:49;;;;;;;16.17;8.68;;;;;;;-1.20;85.23;99661.12;1529961;93;21105;-81
2023/01/06 14:09:10;;;;;;;14.75;9.05;;;;;;;-1.43;86.09;99644.88;1592719;89;21398;-82
2023/01/06 14:12:19;;;;;;;13.68;9.50;;;;;;;-1.46;86.27;99656.41;1613648;89;21038;-82
2023/01/06 14:15:07;;;;;;;16.02;7.92;;;;;;;-1.51;86.18;99633.78;1628589;88;21532;-81
2023/01/06 14:17:49;;;;;;;10.85;7.40;;;;;;;-1.48;85.91;99635.09;1628695;88;21045;-81
2023/01/06 14:20:47;;;;;;;15.05;9.80;;;;;;;-1.53;85.55;99625.27;1664282;85;20993;-82
2023/01/06 14:23:23;;;;;;;18.48;10.08;;;;;;;-1.69;86.04;99618.84;1689883;84;21607;-83
2023/01/06 14:26:01;;;;;;;17.23;10.82;;;;;;;-1.74;86.48;99615.42;1692398;84;21012;-81
2023/01/06 14:28:43;;;;;;;;;;;;;;;;;;;;;
2023/01/06 14:31:30;;;;;;;12.95;7.78;;;;;;;-1.76;86.20;99589.00;1665696;84;21750;-81
2023/01/06 14:34:10;;;;;;;13.90;8.00;;;;;;;-1.75;86.57;99597.09;1690892;84;21075;-82
2023/01/06 14:36:39;;;;;;;13.20;7.87;;;;;;;-1.79;86.46;99580.05;1668338;84;21032;-82
2023/01/06 14:39:19;;;;;;;14.05;8.75;;;;;;;-1.84;87.42;99584.30;1655683;86;21010;-82
2023/01/06 14:42:28;;;;;;;12.25;7.83;;;;;;;-1.88;87.70;99574.89;1678606;85;21012;-82
2023/01/06 14:45:17;;;;;;;;;;;;;;;;;;;;;
2023/01/06 14:51:16;;;;;;;;;;;;;;;;;;;;;
2023/01/06 15:00:52;;;;;;;13.35;6.95;;;;;;;-1.89;88.73;99539.94;1664637;85;21030;-83
2023/01/06 15:03:33;;;;;;;14.33;8.83;;;;;;;-1.97;89.11;99528.84;1660055;85;21816;-84
2023/01/06 15:06:21;;;;;;;13.93;8.30;;;;;;;-2.04;89.68;99516.05;1652915;86;21055;-84
2023/01/06 15:08:56;;;;;;;15.72;9.68;;;;;;;-2.07;89.83;99513.92;1653150;87;21010;-84
2023/01/06 15:11:42;;;;;;;14.83;8.60;;;;;;;-2.11;90.41;99523.28;1653011;87;21598;-83
2023/01/06 15:14:48;;;;;;;13.00;8.03;;;;;;;-2.12;90.93;99507.52;1652506;87;21047;-82
2023/01/06 15:17:16;;;;;;;15.30;9.00;;;;;;;-2.08;91.17;99505.37;1644900;86;21883;-82
2023/01/06 15:19:49;;;;;;;16.27;9.03;;;;;;;-2.09;90.90;99507.52;1652755;87;21470;-83
2023/01/06 15:29:28;;;;;;;21.68;11.70;;;;;;;-2.02;91.21;99510.91;1682731;83;21014;-85
2023/01/06 15:32:04;;;;;;;13.48;8.58;;;;;;;-1.99;91.25;99507.51;1663733;86;21035;-82
2023/01/06 15:34:43;;;;;;;54.67;31.40;;;;;;;-1.84;91.22;99507.52;1664370;86;21019;-82
2023/01/06 15:37:24;;;;;;;23.15;13.32;;;;;;;-1.76;91.31;99489.17;1664822;86;21035;-82
2023/01/06 15:39:55;;;;;;;44.58;29.20;;;;;;;-1.74;91.53;99494.27;1664520;86;21320;-83
2023/01/06 15:50:17;;;;;;;12.63;8.93;;;;;;;-1.74;91.33;99482.33;1617614;87;21558;-83
2023/01/06 15:52:55;;;;;;;14.50;8.48;;;;;;;-1.73;90.99;99476.37;1617963;88;22133;-82
2023/01/06 16:00:27;;;;;;;;;;;;;;;;;;;;;
2023/01/06 16:02:58;;;;;;;9.78;8.25;;;;;;;-1.65;90.79;99470.81;1533265;90;21376;-83
2023/01/06 16:05:54;;;;;;;;;;;;;;;;;;;;;
2023/01/06 16:15:51;;;;;;;16.52;11.08;;;;;;;-1.57;91.10;99463.09;1499802;93;21116;-85
2023/01/06 16:18:38;;;;;;;19.70;11.57;;;;;;;-1.55;91.29;99452.86;1465360;96;21900;-84
2023/01/06 16:21:30;;;;;;;21.02;9.78;;;;;;;-1.50;91.38;99453.70;1486885;96;21220;-82
2023/01/06 16:24:04;;;;;;;13.32;9.63;;;;;;;-1.52;91.42;99457.97;1515947;93;21061;-86
2023/01/06 16:33:46;;;;;;;12.10;8.85;;;;;;;-1.42;91.83;99449.41;1404400;100;21124;-85
2023/01/06 16:36:24;;;;;;;15.83;9.45;;;;;;;-1.41;92.72;99452.39;1408100;101;21846;-84
2023/01/06 16:38:58;;;;;;;14.50;8.90;;;;;;;-1.36;93.01;99449.39;1387426;103;21438;-83
2023/01/06 16:52:52;;;;;;;;;;;;;;;;;;;;;
2023/01/06 16:55:23;;;;;;;19.77;10.68;;;;;;;-1.14;93.09;99440.77;1456254;97;21135;-86
2023/01/06 17:05:10;;;;;;;13.22;9.73;;;;;;;-0.96;92.75;99433.84;1458475;97;21624;-85
2023/01/06 17:07:43;;;;;;;;;;;;;;;-0.94;92.70;99429.56;1449453;98;21709;-87
2023/01/06 17:10:24;;;;;;;21.75;11.63;;;;;;;-0.87;92.81;99423.52;1444788;99;20175;-84
2023/01/06 17:16:13;;;;;;;16.97;10.35;;;;;;;-0.80;92.78;99417.95;1431094;99;21865;-83
2023/01/06 17:19:52;;;;;;;;;;;;;;;;;;;;;
2023/01/06 17:26:29;;;;;;;;;;;;;;;;;;;;;
2023/01/06 17:29:15;;;;;;;19.85;10.63;;;;;;;-0.76;92.74;99393.55;1428958;99;21632;-85
2023/01/06 17:35:50;;;;;;;;;;;;;;;;;;;;;
2023/01/06 17:45:47;;;;;;;13.13;9.20;;;;;;;-0.52;92.60;99392.97;1395148;100;21536;-83
2023/01/06 17:48:39;;;;;;;16.30;9.93;;;;;;;-0.50;92.43;99395.09;1352641;105;21159;-84
2023/01/06 17:51:57;;;;;;;;;;;;;;;;;;;;;
2023/01/06 18:05:53;;;;;;;54.85;38.23;;;;;;;-0.32;92.64;99398.78;1311340;106;21804;-83
2023/01/06 18:08:25;;;;;;;13.53;9.88;;;;;;;-0.28;92.63;99391.50;1275302;111;21159;-84
2023/01/06 18:18:56;;;;;;;;;;;;;;;;;;;;;
2023/01/06 18:21:34;;;;;;;10.70;7.17;;;;;;;-0.23;92.64;99405.11;1280658;109;21198;-84
2023/01/06 18:24:30;;;;;;;9.15;6.33;;;;;;;-0.17;92.77;99416.19;1284962;111;21215;-84
2023/01/06 18:27:22;;;;;;;9.53;7.12;;;;;;;-0.16;92.62;99416.19;1310771;109;21172;-84
2023/01/06 18:29:55;;;;;;;10.63;9.28;;;;;;;-0.10;92.86;99410.16;1321475;103;21142;-83
2023/01/06 18:32:32;;;;;;;10.88;8.08;;;;;;;-0.03;92.90;99404.08;1407816;101;21660;-83
2023/01/06 18:35:07;;;;;;;7.08;5.97;;;;;;;0.01;92.89;99405.77;1463197;97;21198;-83
2023/01/06 18:37:46;;;;;;;12.55;6.50;;;;;;;0.03;92.86;99414.31;1461943;98;21254;-83
2023/01/06 18:40:22;;;;;;;10.35;6.50;;;;;;;0.08;92.97;99422.80;1462300;98;21978;-84
2023/01/06 18:46:55;;;;;;;8.30;6.80;;;;;;;0.20;93.03;99403.44;1506395;93;22072;-84
2023/01/06 18:49:30;;;;;;;8.65;6.92;;;;;;;0.25;93.10;99406.37;1506473;95;21036;-79
2023/01/06 18:52:09;;;;;;;8.23;6.15;;;;;;;0.28;93.17;99391.81;1588789;87;21595;-84
2023/01/06 18:58:45;;;;;;;9.98;6.37;;;;;;;0.35;93.14;99391.30;1686996;83;21075;-83
2023/01/06 19:01:03;;;;;;;7.72;6.17;;;;;;;0.40;93.24;99398.52;1700674;83;21367;-86
2023/01/06 19:03:43;;;;;;;7.78;5.78;;;;;;;0.47;93.29;99402.70;1715617;83;21402;-85
2023/01/06 19:06:21;;;;;;;8.93;5.65;;;;;;;0.50;93.28;99392.39;1663662;85;21046;-85
2023/01/06 19:08:57;;;;;;;6.37;4.67;;;;;;;0.52;93.31;99380.39;1681920;85;21505;-84
2023/01/06 19:11:29;;;;;;;8.43;6.05;;;;;;;0.57;93.29;99388.05;1682018;85;21112;-83
2023/01/06 19:14:06;;;;;;;7.80;5.42;;;;;;;0.58;93.34;99382.88;1681402;85;21002;-84
2023/01/06 19:16:48;;;;;;;8.90;5.55;;;;;;;0.63;93.58;99378.54;1682412;85;21018;-88
2023/01/06 19:19:40;;;;;;;6.17;4.92;;;;;;;0.71;93.66;99366.89;1678294;85;22032;-84
2023/01/06 19:22:33;;;;;;;7.55;5.03;;;;;;;0.80;93.92;99386.47;1681814;85;21042;-85
2023/01/06 19:25:08;;;;;;;7.42;5.65;;;;;;;0.86;93.89;99385.10;1681734;85;21006;-84
2023/01/06 19:27:57;;;;;;;9.70;5.78;;;;;;;0.98;94.24;99378.53;1596850;89;21532;-86
2023/01/06 19:30:49;;;;;;;8.03;5.30;;;;;;;1.04;94.14;99390.01;1600338;89;21048;-89
2023/01/06 19:33:32;;;;;;;8.85;5.50;;;;;;;1.10;94.21;99382.20;1677094;85;21528;-86
2023/01/06 19:36:26;;;;;;;7.15;5.70;;;;;;;1.11;94.08;99383.89;1680539;85;21150;-85
2023/01/06 19:39:01;;;;;;;7.08;5.60;;;;;;;1.16;93.96;99377.84;1680482;85;21064;-86
2023/01/06 19:41:33;;;;;;;7.72;5.55;;;;;;;1.16;94.02;99377.84;1680863;85;21060;-84
2023/01/06 19:44:10;;;;;;;8.95;5.08;;;;;;;1.20;94.10;99380.33;1680252;85;21017;-85
2023/01/06 19:46:47;;;;;;;9.03;5.97;;;;;;;1.22;94.08;99379.03;1680760;85;21012;-85
2023/01/06 19:49:34;;;;;;;7.95;5.12;;;;;;;1.20;93.90;99380.33;1680769;85;21542;-86
2023/01/06 19:52:28;;;;;;;7.65;5.90;;;;;;;1.27;94.22;99388.83;1677666;85;20990;-86
2023/01/06 19:55:09;;;;;;;9.15;5.95;;;;;;;1.33;94.38;99384.87;1668070;85;21604;-86
2023/01/06 19:57:47;;;;;;;9.58;6.70;;;;;;;1.36;94.17;99389.97;1677269;85;21088;-86
2023/01/06 20:00:48;;;;;;;9.50;6.55;;;;;;;1.35;94.18;99389.56;1680233;85;20973;-85
2023/01/06 20:03:36;;;;;;;7.75;6.05;;;;;;;1.35;94.14;99386.98;1680327;85;21037;-84
2023/01/06 20:06:14;;;;;;;12.18;7.22;;;;;;;1.39;94.42;99386.05;1779646;80;21731;-84
2023/01/06 20:08:44;;;;;;;12.40;7.33;;;;;;;1.39;94.41;99386.05;1799620;80;20976;-88
2023/01/06 20:11:19;;;;;;;13.38;8.25;;;;;;;1.47;94.54;99381.64;1776579;80;21044;-87
2023/01/06 20:13:50;;;;;;;13.90;7.83;;;;;;;1.54;94.77;99384.95;1799536;80;20999;-85
2023/01/06 20:16:22;;;;;;;8.90;6.50;;;;;;;1.53;94.40;99389.26;1776638;80;21889;-84
2023/01/06 20:19:01;;;;;;;12.10;7.10;;;;;;;1.53;94.39;99390.55;1797813;80;21714;-85
2023/01/06 20:21:31;;;;;;;13.38;8.05;;;;;;;1.60;94.75;99391.73;1794118;80;21542;-84
2023/01/06 20:24:10;;;;;;;11.50;7.28;;;;;;;1.67;94.87;99385.63;1798952;79;21280;-86
2023/01/06 20:26:43;;;;;;;12.28;7.95;;;;;;;1.76;95.10;99390.61;1785551;79;21015;-85
2023/01/06 20:29:13;;;;;;;10.90;7.60;;;;;;;1.78;94.82;99396.59;1799324;79;21499;-84
2023/01/06 20:31:46;;;;;;;13.98;8.38;;;;;;;1.73;94.52;99392.79;1799618;79;21824;-85
2023/01/06 20:34:19;;;;;;;13.08;8.03;;;;;;;1.78;94.82;99396.59;1798966;79;21914;-85
2023/01/06 20:36:55;;;;;;;11.15;7.97;;;;;;;1.77;94.70;99400.05;1792896;80;21288;-85
2023/01/06 20:39:23;;;;;;;11.48;7.35;;;;;;;1.84;95.13;99391.33;1796648;79;20979;-90
2023/01/06 20:45:54;;;;;;;9.20;5.70;;;;;;;1.89;95.10;99397.25;1799137;80;21034;-85
2023/01/06 20:48:29;;;;;;;10.45;6.35;;;;;;;1.93;95.13;99398.92;1799331;80;21250;-86
2023/01/06 20:51:02;;;;;;;10.40;6.50;;;;;;;1.89;94.87;99395.97;1799244;79;21844;-85
2023/01/06 20:53:36;;;;;;;13.00;7.58;;;;;;;1.90;94.98;99398.94;1799143;79;21301;-85
2023/01/06 20:56:07;;;;;;;14.03;6.87;;;;;;;1.87;94.91;99402.86;1798717;79;21027;-85